createdAt,value
2018-06-29T00:01:43.687Z,22.90
2018-06-29T00:05:45.834Z,24.00
2018-06-29T00:09:47.967Z,23.50
2018-06-29T00:13:50.284Z,23.10
2018-06-29T00:17:52.447Z,22.90
2018-06-29T00:21:55.271Z,22.60
2018-06-29T00:25:57.415Z,22.00
2018-06-29T00:29:59.595Z,21.70
2018-06-29T00:34:01.875Z,21.50
2018-06-29T00:38:04.143Z,21.90
2018-06-29T00:42:06.635Z,22.50
2018-06-29T00:46:08.760Z,22.30
2018-06-29T00:50:11.102Z,22.20
2018-06-29T00:54:13.360Z,22.20
2018-06-29T00:58:15.505Z,21.70
2018-06-29T01:02:17.661Z,21.50
2018-06-29T01:06:19.855Z,22.00
2018-06-29T01:10:22.034Z,21.60
2018-06-29T01:14:24.421Z,21.20
2018-06-29T01:18:27.388Z,21.10
2018-06-29T01:22:29.530Z,21.00
2018-06-29T01:26:31.831Z,21.00
2018-06-29T01:30:33.970Z,20.60
2018-06-29T01:34:36.129Z,20.70
2018-06-29T01:38:38.284Z,20.50
2018-06-29T01:42:40.447Z,21.00
2018-06-29T01:46:43.068Z,20.80
2018-06-29T01:50:45.223Z,20.80
2018-06-29T01:54:47.376Z,21.20
2018-06-29T01:58:49.546Z,21.40
2018-06-29T02:02:51.733Z,20.50
2018-06-29T02:06:53.891Z,20.10
2018-06-29T02:10:56.023Z,20.60
2018-06-29T02:14:58.164Z,20.20
2018-06-29T02:19:01.467Z,20.40
2018-06-29T02:23:03.860Z,20.50
2018-06-29T02:27:06.223Z,20.50
2018-06-29T02:31:08.376Z,20.30
2018-06-29T02:35:11.808Z,20.10
2018-06-29T02:39:14.000Z,20.20
2018-06-29T02:43:16.159Z,20.20
2018-06-29T02:47:18.300Z,20.30
2018-06-29T02:51:20.459Z,19.80
2018-06-29T02:55:23.609Z,19.90
2018-06-29T02:59:25.790Z,20.00
2018-06-29T03:03:27.946Z,19.80
2018-06-29T03:07:30.071Z,19.70
2018-06-29T03:11:32.216Z,19.60
2018-06-29T03:15:34.366Z,20.00
2018-06-29T03:19:36.511Z,19.50
2018-06-29T03:23:38.638Z,19.90
2018-06-29T03:27:40.806Z,19.80
2018-06-29T03:31:42.966Z,20.10
2018-06-29T03:35:45.164Z,20.30
2018-06-29T03:39:48.964Z,20.90
2018-06-29T03:43:51.131Z,21.60
2018-06-29T03:47:53.864Z,21.40
2018-06-29T03:51:55.999Z,22.20
2018-06-29T03:55:58.344Z,21.90
2018-06-29T04:00:00.669Z,21.90
2018-06-29T04:04:02.790Z,22.50
2018-06-29T04:08:04.965Z,23.70
2018-06-29T04:12:07.177Z,24.30
2018-06-29T04:16:09.386Z,23.00
2018-06-29T04:20:12.353Z,22.90
2018-06-29T04:24:14.555Z,22.00
2018-06-29T04:28:17.214Z,22.40
2018-06-29T04:32:19.363Z,21.50
2018-06-29T04:36:21.659Z,21.80
2018-06-29T04:40:23.853Z,21.90
2018-06-29T04:44:25.966Z,22.50
2018-06-29T04:48:28.109Z,21.50
2018-06-29T04:52:30.251Z,23.00
2018-06-29T04:56:32.875Z,22.90
2018-06-29T05:00:35.103Z,24.00
2018-06-29T05:04:37.239Z,24.60
2018-06-29T05:08:39.978Z,24.50
2018-06-29T05:12:42.117Z,24.20
2018-06-29T05:16:44.268Z,22.80
2018-06-29T05:20:46.480Z,22.40
2018-06-29T05:24:48.636Z,23.90
2018-06-29T05:28:50.763Z,24.50
2018-06-29T05:32:52.880Z,24.00
2018-06-29T05:36:55.008Z,22.30
2018-06-29T05:40:57.174Z,22.60
2018-06-29T05:44:59.334Z,22.90
2018-06-29T05:49:02.093Z,22.80
2018-06-29T05:53:04.272Z,26.50
2018-06-29T05:57:06.352Z,28.10
2018-06-29T06:01:10.776Z,29.70
2018-06-29T06:05:12.919Z,28.80
2018-06-29T06:09:15.097Z,27.50
2018-06-29T06:13:17.253Z,27.00
2018-06-29T06:17:19.356Z,28.10
2018-06-29T06:21:21.642Z,25.40
2018-06-29T06:25:23.787Z,25.60
2018-06-29T06:29:25.965Z,25.60
2018-06-29T06:33:28.095Z,26.30
2018-06-29T06:37:30.255Z,26.10
2018-06-29T06:41:32.451Z,23.90
2018-06-29T06:45:34.599Z,23.30
2018-06-29T06:49:36.711Z,23.40
2018-06-29T06:53:39.014Z,22.60
2018-06-29T06:57:41.179Z,22.80
2018-06-29T07:01:43.339Z,22.80
2018-06-29T07:05:45.491Z,23.00
2018-06-29T07:09:47.706Z,23.30
2018-06-29T07:13:49.894Z,22.90
2018-06-29T07:17:52.225Z,22.40
2018-06-29T07:21:54.375Z,23.40
2018-06-29T07:25:56.533Z,22.80
2018-06-29T07:29:59.795Z,22.70
2018-06-29T07:34:02.113Z,23.30
2018-06-29T07:38:04.452Z,22.80
2018-06-29T07:42:06.651Z,23.00
2018-06-29T07:46:09.574Z,23.10
2018-06-29T07:50:12.002Z,23.20
2018-06-29T07:54:14.216Z,23.50
2018-06-29T07:58:16.520Z,22.80
2018-06-29T08:02:18.616Z,23.30
2018-06-29T08:06:20.844Z,23.50
2018-06-29T08:10:23.019Z,24.20
2018-06-29T08:14:25.302Z,23.80
2018-06-29T08:18:27.464Z,23.80
2018-06-29T08:22:29.652Z,23.60
2018-06-29T08:26:31.920Z,25.40
2018-06-29T08:30:34.193Z,24.30
2018-06-29T08:34:36.359Z,24.30
2018-06-29T08:38:38.634Z,24.20
2018-06-29T08:42:40.803Z,24.30
2018-06-29T08:46:42.989Z,23.30
2018-06-29T08:50:45.108Z,23.30
2018-06-29T08:54:47.312Z,23.90
2018-06-29T08:58:49.513Z,23.40
2018-06-29T09:02:51.684Z,24.40
2018-06-29T09:06:53.881Z,25.00
2018-06-29T09:10:56.146Z,24.20
2018-06-29T09:14:58.368Z,24.70
2018-06-29T09:19:00.627Z,24.10
2018-06-29T09:23:02.750Z,24.30
2018-06-29T09:27:05.001Z,24.10
2018-06-29T09:31:07.204Z,24.30
2018-06-29T09:35:10.658Z,24.80
2018-06-29T09:39:13.427Z,24.60
2018-06-29T09:43:15.787Z,24.80
2018-06-29T09:47:18.184Z,24.70
2018-06-29T09:51:20.509Z,24.70
2018-06-29T09:55:22.666Z,25.20
2018-06-29T09:59:24.828Z,24.60
2018-06-29T10:03:27.172Z,25.20
2018-06-29T10:07:29.337Z,26.10
2018-06-29T10:11:32.048Z,26.60
2018-06-29T10:15:34.254Z,27.20
2018-06-29T10:19:36.465Z,26.90
2018-06-29T10:23:38.639Z,28.30
2018-06-29T10:27:40.852Z,26.60
2018-06-29T10:31:43.032Z,26.80
2018-06-29T10:35:45.207Z,27.00
2018-06-29T10:39:47.364Z,27.10
2018-06-29T10:43:49.585Z,26.30
2018-06-29T10:47:51.834Z,27.00
2018-06-29T10:51:53.976Z,27.50
2018-06-29T10:55:56.147Z,26.60
2018-06-29T10:59:58.350Z,26.20
2018-06-29T11:04:00.526Z,26.50
2018-06-29T11:08:02.822Z,28.60
2018-06-29T11:12:05.007Z,29.30
2018-06-29T11:16:07.249Z,27.10
2018-06-29T11:20:09.403Z,27.90
2018-06-29T11:24:11.604Z,29.00
2018-06-29T11:28:14.154Z,26.90
2018-06-29T11:32:16.408Z,26.20
2018-06-29T11:36:18.827Z,26.80
2018-06-29T11:40:21.032Z,28.70
2018-06-29T11:44:23.202Z,26.80
2018-06-29T11:48:25.382Z,28.60
2018-06-29T11:52:27.700Z,29.70
2018-06-29T11:56:30.078Z,29.20
2018-06-29T12:00:32.338Z,30.20
2018-06-29T12:04:34.467Z,29.00
2018-06-29T12:08:36.697Z,31.50
2018-06-29T12:12:38.863Z,31.40
2018-06-29T12:16:41.092Z,31.80
2018-06-29T12:20:43.731Z,30.00
2018-06-29T12:24:46.556Z,30.30
2018-06-29T12:28:48.730Z,30.10
2018-06-29T12:32:50.911Z,31.90
2018-06-29T12:36:53.132Z,30.90
2018-06-29T12:40:55.355Z,29.60
2018-06-29T12:44:58.575Z,30.90
2018-06-29T12:49:01.001Z,32.70
2018-06-29T12:53:03.171Z,30.40
2018-06-29T12:57:05.572Z,30.90
2018-06-29T13:01:07.777Z,33.00
2018-06-29T13:05:10.011Z,31.20
2018-06-29T13:09:12.199Z,28.80
2018-06-29T13:13:14.404Z,29.20
2018-06-29T13:17:16.668Z,31.70
2018-06-29T13:21:18.893Z,32.90
2018-06-29T13:25:21.748Z,31.40
2018-06-29T13:29:24.420Z,30.90
2018-06-29T13:33:26.580Z,29.70
2018-06-29T13:37:28.789Z,32.30
2018-06-29T13:41:31.213Z,32.40
2018-06-29T13:45:34.945Z,31.50
2018-06-29T13:49:37.636Z,29.00
2018-06-29T13:53:39.908Z,30.40
2018-06-29T13:57:42.164Z,32.10
2018-06-29T14:01:44.396Z,30.40
2018-06-29T14:05:46.578Z,31.60
2018-06-29T14:09:48.802Z,30.40
2018-06-29T14:13:51.031Z,31.90
2018-06-29T14:17:53.236Z,32.10
2018-06-29T14:21:55.333Z,30.20
2018-06-29T14:25:58.441Z,32.40
2018-06-29T14:30:00.632Z,30.90
2018-06-29T14:34:02.827Z,30.70
2018-06-29T14:38:05.044Z,32.60
2018-06-29T14:42:08.128Z,31.10
2018-06-29T14:46:10.315Z,32.10
2018-06-29T14:50:12.466Z,31.30
2018-06-29T14:54:15.112Z,29.60
2018-06-29T14:58:17.326Z,31.90
2018-06-29T15:02:19.636Z,32.80
2018-06-29T15:06:21.922Z,33.20
2018-06-29T15:10:24.110Z,30.40
2018-06-29T15:14:26.843Z,30.10
2018-06-29T15:18:29.019Z,29.60
2018-06-29T15:22:31.250Z,32.10
2018-06-29T15:26:33.408Z,30.10
2018-06-29T15:30:35.661Z,31.80
2018-06-29T15:34:37.953Z,31.30
2018-06-29T15:38:40.125Z,31.50
2018-06-29T15:42:42.294Z,30.20
2018-06-29T15:46:44.461Z,30.70
2018-06-29T15:50:47.256Z,28.90
2018-06-29T15:54:49.408Z,30.20
2018-06-29T15:58:52.123Z,30.70
2018-06-29T16:02:54.783Z,31.10
2018-06-29T16:06:57.153Z,30.70
2018-06-29T16:10:59.327Z,30.70
2018-06-29T16:15:02.149Z,30.60
2018-06-29T16:19:04.343Z,28.90
2018-06-29T16:23:06.488Z,29.40
2018-06-29T16:27:08.627Z,30.60
2018-06-29T16:31:10.825Z,30.20
2018-06-29T16:35:13.175Z,29.30
2018-06-29T16:39:15.460Z,30.30
2018-06-29T16:43:17.725Z,31.30
2018-06-29T16:47:19.998Z,30.10
2018-06-29T16:51:22.169Z,29.20
2018-06-29T16:55:24.324Z,28.90
2018-06-29T16:59:26.477Z,28.60
2018-06-29T17:03:28.683Z,28.10
2018-06-29T17:07:30.868Z,28.40
2018-06-29T17:11:33.039Z,30.40
2018-06-29T17:15:35.208Z,28.60
2018-06-29T17:19:37.399Z,28.50
2018-06-29T17:23:40.246Z,28.30
2018-06-29T17:27:42.427Z,28.80
2018-06-29T17:31:44.592Z,28.90
2018-06-29T17:35:46.736Z,28.40
2018-06-29T17:39:48.911Z,28.20
2018-06-29T17:43:51.075Z,28.30
2018-06-29T17:47:53.294Z,28.20
2018-06-29T17:51:55.566Z,28.20
2018-06-29T17:55:57.895Z,28.10
2018-06-29T18:00:00.115Z,29.10
2018-06-29T18:04:02.933Z,28.30
2018-06-29T18:08:05.927Z,27.90
2018-06-29T18:12:08.148Z,27.80
2018-06-29T18:16:10.387Z,27.50
2018-06-29T18:20:12.841Z,28.00
2018-06-29T18:24:15.002Z,27.60
2018-06-29T18:28:17.614Z,27.70
2018-06-29T18:32:20.195Z,27.80
2018-06-29T18:36:22.379Z,28.30
2018-06-29T18:40:24.543Z,27.80
2018-06-29T18:44:26.868Z,27.70
2018-06-29T18:48:29.359Z,27.50
2018-06-29T18:52:31.740Z,27.80
2018-06-29T18:56:33.935Z,27.90
2018-06-29T19:00:36.144Z,27.10
2018-06-29T19:04:38.361Z,26.70
2018-06-29T19:08:40.512Z,26.90
2018-06-29T19:12:42.696Z,26.90
2018-06-29T19:16:44.913Z,26.80
2018-06-29T19:20:47.083Z,26.90
2018-06-29T19:24:49.360Z,26.60
2018-06-29T19:28:51.552Z,26.30
2018-06-29T19:32:53.724Z,26.20
2018-06-29T19:36:55.921Z,26.60
2018-06-29T19:40:58.088Z,26.10
2018-06-29T19:45:00.920Z,26.20
2018-06-29T19:49:03.124Z,26.80
2018-06-29T19:53:05.875Z,26.40
2018-06-29T19:57:08.014Z,26.10
2018-06-29T20:01:10.309Z,27.00
2018-06-29T20:05:13.343Z,27.90
2018-06-29T20:09:15.594Z,27.90
2018-06-29T20:13:17.792Z,28.40
2018-06-29T20:17:20.020Z,28.20
2018-06-29T20:21:22.204Z,27.60
2018-06-29T20:25:25.384Z,28.00
2018-06-29T20:29:27.594Z,28.10
2018-06-29T20:33:29.764Z,27.80
2018-06-29T20:37:31.919Z,27.70
2018-06-29T20:41:34.456Z,27.60
2018-06-29T20:45:36.660Z,27.40
2018-06-29T20:49:38.862Z,27.10
2018-06-29T20:53:41.038Z,26.00
2018-06-29T20:57:43.201Z,26.10
2018-06-29T21:01:45.396Z,26.30
2018-06-29T21:05:47.552Z,26.60
2018-06-29T21:09:51.810Z,26.60
2018-06-29T21:13:54.119Z,26.20
2018-06-29T21:17:56.420Z,26.20
2018-06-29T21:21:58.523Z,26.10
2018-06-29T21:26:00.663Z,26.00
2018-06-29T21:30:02.920Z,26.00
2018-06-29T21:34:05.088Z,25.70
2018-06-29T21:38:07.831Z,25.40
2018-06-29T21:42:09.969Z,25.40
2018-06-29T21:46:12.102Z,25.40
2018-06-29T21:50:14.300Z,25.20
2018-06-29T21:54:16.502Z,25.10
2018-06-29T21:58:18.669Z,25.20
2018-06-29T22:02:20.825Z,25.10
2018-06-29T22:06:22.991Z,25.10
2018-06-29T22:10:25.149Z,24.60
2018-06-29T22:14:27.299Z,24.40
2018-06-29T22:18:29.694Z,24.50
2018-06-29T22:22:31.927Z,24.70
2018-06-29T22:26:34.183Z,24.70
2018-06-29T22:30:36.826Z,24.30
2018-06-29T22:34:39.003Z,24.30
2018-06-29T22:38:41.193Z,23.70
2018-06-29T22:42:43.326Z,23.20
2018-06-29T22:46:45.499Z,23.80
2018-06-29T22:50:47.735Z,24.00
2018-06-29T22:54:49.962Z,23.80
2018-06-29T22:58:52.180Z,23.80
2018-06-29T23:02:59.491Z,23.80
2018-06-29T23:07:01.639Z,23.70
2018-06-29T23:11:03.889Z,23.20
2018-06-29T23:15:06.081Z,23.40
2018-06-29T23:19:08.553Z,23.50
2018-06-29T23:23:10.777Z,23.30
2018-06-29T23:27:12.889Z,23.00
2018-06-29T23:31:15.455Z,22.80
2018-06-29T23:35:17.601Z,23.20
2018-06-29T23:39:19.779Z,23.20
2018-06-29T23:43:21.908Z,23.00
2018-06-29T23:47:24.095Z,22.90
2018-06-29T23:51:26.269Z,22.90
2018-06-29T23:55:28.539Z,22.90
2018-06-29T23:59:30.720Z,22.90
